< < Back
Terminal Aerodrome Forecast


Current Version              Previous Versions:   1  2  3  4  5  6  7  8  9  

Terminal Aerodrome Forecast

716
FTUS44 KBMX 212300
TAFTCL
TAF
KTCL 212339Z 2200/2224 25007KT P6SM SCT050
     FM220400 34005KT P6SM SCT025 BKN040
     FM221100 01006KT P6SM FEW250=

Latest METAR

435
SAUS70 KWBC 220800 RRI
MTRTCL
METAR KTCL 220753Z AUTO 02006KT 7SM -TSRA SCT047 BKN065 OVC080 22/19
A3002 RMK AO2 LTG DSNT SE AND S RAB10 TSB06E35B37 SLP161
P0015 T02220194


USA.gov is the U.S. government's official web portal to all federal, state and local government web resources and services.